Time;durP1;ratioP1;P1;durP2;ratioP2;P2;SDS_P1;SDS_P2;PMS_P1;PMS_P2;Temp;Humidity;BMP_temperature;BMP_pressure;BME280_temperature;BME280_humidity;BME280_pressure;Samples;Min_cycle;Max_cycle;Signal;HPM_P1;HPM_P2
2023/08/08 00:02:59;;;;;;;1.30;0.83;;;;;;;25.31;43.50;94924.63;6134983;28;109395;-64
2023/08/08 00:06:02;;;;;;;2.60;1.33;;;;;;;25.32;43.75;94921.59;6130428;28;110156;-61
2023/08/08 00:09:07;;;;;;;1.47;1.00;;;;;;;25.33;43.78;94922.38;6138390;28;109230;-62
2023/08/08 00:12:10;;;;;;;2.57;1.10;;;;;;;25.27;43.40;94921.03;6150860;28;108947;-63
2023/08/08 00:15:13;;;;;;;3.30;1.37;;;;;;;25.27;43.52;94927.16;6127930;28;110779;-61
2023/08/08 00:18:17;;;;;;;1.67;1.27;;;;;;;25.17;43.43;94921.41;6129435;28;109260;-61
2023/08/08 00:21:20;;;;;;;1.37;1.07;;;;;;;25.22;43.21;94923.91;6114234;28;108822;-62
2023/08/08 00:24:25;;;;;;;1.73;1.10;;;;;;;25.11;43.44;94931.56;6143950;28;109187;-62
2023/08/08 00:27:28;;;;;;;;;;;;;;;25.08;43.15;94929.53;6135571;28;109020;-62
2023/08/08 00:30:31;;;;;;;;;;;;;;;25.07;42.73;94936.78;6125911;28;109212;-62
2023/08/08 00:36:12;;;;;;;1.30;0.90;;;;;;;25.01;42.80;94942.66;6361032;27;108984;-62
2023/08/08 00:39:15;;;;;;;1.60;0.90;;;;;;;24.90;42.79;94944.97;6354187;27;109245;-62
2023/08/08 00:42:19;;;;;;;1.20;0.90;;;;;;;24.89;42.70;94947.97;6345365;27;109075;-62
2023/08/08 00:45:22;;;;;;;1.50;1.00;;;;;;;24.94;42.83;94945.09;6337443;27;109076;-61
2023/08/08 00:48:25;;;;;;;1.70;1.00;;;;;;;24.85;42.89;94941.66;6353703;27;109183;-61
2023/08/08 00:51:30;;;;;;;1.67;1.10;;;;;;;24.87;42.60;94944.81;6351283;27;109020;-62
2023/08/08 00:54:33;;;;;;;1.30;1.00;;;;;;;24.78;42.71;94942.19;6333184;27;110704;-61
2023/08/08 00:57:38;;;;;;;1.20;0.80;;;;;;;24.75;42.47;94950.88;6334059;27;109047;-62
2023/08/08 01:00:42;;;;;;;1.23;1.00;;;;;;;24.61;42.36;94953.75;6345911;27;109174;-63
2023/08/08 01:03:46;;;;;;;1.60;1.00;;;;;;;24.50;42.36;94941.84;6327504;27;110282;-62
2023/08/08 01:06:58;;;;;;;1.30;1.00;;;;;;;24.38;42.61;94944.47;6332706;27;109147;-63
2023/08/08 01:10:07;;;;;;;1.50;1.10;;;;;;;24.32;42.46;94937.69;6306519;27;109525;-62
2023/08/08 01:13:17;;;;;;;1.47;1.10;;;;;;;24.35;42.56;94940.50;6320508;27;109258;-61
2023/08/08 01:16:21;;;;;;;1.20;1.00;;;;;;;24.35;42.85;94955.78;6318197;27;109148;-64
2023/08/08 01:19:29;;;;;;;1.35;1.00;;;;;;;24.33;42.48;94952.63;6319136;27;109056;-66
2023/08/08 01:22:38;;;;;;;1.65;0.90;;;;;;;24.35;42.54;94961.91;6323643;27;109019;-64
2023/08/08 01:25:44;;;;;;;1.38;1.00;;;;;;;24.30;42.82;94964.78;6310502;27;109169;-65
2023/08/08 01:28:48;;;;;;;1.60;1.00;;;;;;;24.29;42.79;94959.75;6302388;27;109328;-65
2023/08/08 01:31:51;;;;;;;1.50;1.00;;;;;;;24.24;42.87;94968.75;6307804;27;109006;-63
2023/08/08 01:34:54;;;;;;;2.10;1.05;;;;;;;24.17;42.94;94965.75;6306141;27;109432;-66
2023/08/08 01:38:06;;;;;;;1.15;1.00;;;;;;;24.13;42.81;94970.97;6303151;27;109019;-64
2023/08/08 01:41:11;;;;;;;1.20;1.00;;;;;;;24.17;42.74;94960.41;6319498;27;108898;-64
2023/08/08 01:44:14;;;;;;;1.10;0.90;;;;;;;24.12;43.00;94969.41;6324414;27;109184;-65
2023/08/08 01:47:18;;;;;;;2.10;1.00;;;;;;;23.97;43.06;94977.91;6290579;27;109348;-63
2023/08/08 01:50:22;;;;;;;1.10;0.80;;;;;;;23.90;43.26;94996.34;6284287;27;109725;-63
2023/08/08 01:53:25;;;;;;;2.40;0.90;;;;;;;23.85;43.38;95002.63;6298385;27;109394;-65
2023/08/08 01:56:30;;;;;;;1.40;1.00;;;;;;;24.03;42.72;95002.63;6304668;27;108864;-64
2023/08/08 01:59:33;;;;;;;1.50;1.20;;;;;;;24.29;42.64;95002.53;6284893;27;109239;-65
2023/08/08 02:02:36;;;;;;;1.48;1.00;;;;;;;24.50;42.47;95006.06;6285806;27;109310;-64
2023/08/08 02:05:40;;;;;;;1.02;0.90;;;;;;;24.66;42.35;95014.31;6307319;27;108984;-66
2023/08/08 02:08:43;;;;;;;1.55;1.00;;;;;;;24.78;42.27;95009.88;6304608;27;109093;-63
2023/08/08 02:11:47;;;;;;;1.20;1.00;;;;;;;24.85;42.11;95005.91;6283602;27;109462;-63
2023/08/08 02:14:51;;;;;;;2.00;1.00;;;;;;;24.86;42.04;95010.16;6289158;27;109149;-64
2023/08/08 02:17:54;;;;;;;1.20;0.88;;;;;;;24.87;42.25;95009.06;6301892;27;109955;-65
2023/08/08 02:20:57;;;;;;;2.10;1.00;;;;;;;24.88;42.18;95016.78;6291923;27;109256;-65
2023/08/08 02:24:00;;;;;;;1.40;1.00;;;;;;;24.94;42.07;95023.50;6297644;27;110323;-65
2023/08/08 02:27:05;;;;;;;1.20;0.98;;;;;;;24.96;42.04;95034.66;6313153;27;109124;-63
2023/08/08 02:30:09;;;;;;;1.55;0.95;;;;;;;24.96;42.06;95029.31;6308762;27;110048;-62
2023/08/08 02:33:12;;;;;;;1.30;1.00;;;;;;;24.97;41.89;95038.13;6291084;27;110261;-62
2023/08/08 02:36:15;;;;;;;3.20;1.17;;;;;;;24.99;42.00;95039.38;6280309;27;109022;-63
2023/08/08 02:39:18;;;;;;;1.70;0.80;;;;;;;25.00;42.13;95035.59;6304618;27;108827;-62
2023/08/08 02:42:23;;;;;;;3.50;1.33;;;;;;;25.02;42.10;95021.88;6306483;27;109044;-61
2023/08/08 02:45:26;;;;;;;1.30;1.00;;;;;;;25.02;42.01;95038.72;6287705;27;109083;-63
2023/08/08 02:48:31;;;;;;;1.30;1.20;;;;;;;25.04;41.87;95049.91;6304294;27;109262;-62
2023/08/08 02:51:34;;;;;;;2.33;1.10;;;;;;;25.09;41.72;95068.47;6290311;27;109501;-62
2023/08/08 02:54:37;;;;;;;1.33;1.20;;;;;;;25.07;41.81;95065.31;6298788;27;110149;-63
2023/08/08 02:57:41;;;;;;;1.50;1.40;;;;;;;25.09;42.18;95059.63;6283020;27;109024;-62
2023/08/08 03:00:44;;;;;;;1.47;1.20;;;;;;;25.11;41.64;95059.31;6300054;27;109138;-62
2023/08/08 03:03:48;;;;;;;1.90;1.30;;;;;;;25.09;41.47;95065.78;6304920;27;109715;-62
2023/08/08 03:06:51;;;;;;;1.90;1.70;;;;;;;25.10;42.00;95074.59;6286601;27;109008;-63
2023/08/08 03:09:54;;;;;;;2.00;1.70;;;;;;;25.14;41.51;95059.44;6292176;27;110155;-61
2023/08/08 03:12:58;;;;;;;2.00;1.40;;;;;;;25.15;41.94;95058.34;6297361;27;109210;-63
2023/08/08 03:16:02;;;;;;;1.90;1.70;;;;;;;25.16;41.75;95069.81;6302066;27;112229;-62
2023/08/08 03:19:05;;;;;;;1.70;1.50;;;;;;;25.16;41.57;95065.25;6299703;27;109012;-61
2023/08/08 03:22:08;;;;;;;1.93;1.73;;;;;;;25.17;41.51;95063.38;6298031;27;109329;-62
2023/08/08 03:25:11;;;;;;;2.47;1.97;;;;;;;25.21;41.54;95072.34;6288304;27;109763;-61
2023/08/08 03:28:16;;;;;;;2.10;1.90;;;;;;;25.20;41.81;95065.38;6286489;27;109329;-62
2023/08/08 03:31:19;;;;;;;2.55;1.73;;;;;;;25.23;41.54;95072.78;6283488;27;111140;-64
2023/08/08 03:34:22;;;;;;;2.40;1.90;;;;;;;25.19;41.64;95082.56;6288966;27;109276;-62
2023/08/08 03:37:25;;;;;;;1.80;1.60;;;;;;;25.18;41.58;95091.72;6309729;27;110166;-64
2023/08/08 03:40:28;;;;;;;1.80;1.70;;;;;;;25.21;41.70;95099.13;6311825;27;109573;-64
2023/08/08 03:43:33;;;;;;;2.47;1.60;;;;;;;25.21;41.35;95091.88;6299900;27;109804;-64
2023/08/08 03:46:36;;;;;;;2.40;1.58;;;;;;;25.19;41.27;95095.97;6301730;27;109062;-63
2023/08/08 03:49:39;;;;;;;2.00;1.77;;;;;;;25.17;41.33;95092.81;6291837;27;109048;-64
2023/08/08 03:52:42;;;;;;;2.10;1.80;;;;;;;25.19;41.33;95090.59;6295868;27;109575;-65
2023/08/08 03:55:46;;;;;;;2.60;1.70;;;;;;;25.15;41.32;95087.78;6286322;27;110291;-65
2023/08/08 03:58:50;;;;;;;2.60;1.70;;;;;;;25.16;41.57;95075.19;6290457;27;109553;-65
2023/08/08 04:01:53;;;;;;;2.80;2.00;;;;;;;25.18;41.58;95078.31;6310389;27;108966;-72
2023/08/08 04:04:56;;;;;;;3.10;1.90;;;;;;;25.25;41.12;95094.69;6297528;27;109195;-65
2023/08/08 04:07:59;;;;;;;2.70;2.20;;;;;;;25.26;41.17;95096.25;6309204;27;110582;-71
2023/08/08 04:11:03;;;;;;;2.03;1.80;;;;;;;25.27;41.22;95103.97;6310342;27;109131;-71
2023/08/08 04:14:07;;;;;;;3.33;2.35;;;;;;;25.31;40.95;95106.75;6310433;27;111369;-72
2023/08/08 04:17:10;;;;;;;3.95;3.00;;;;;;;25.30;41.18;95121.28;6299437;27;110247;-70
2023/08/08 04:20:14;;;;;;;9.48;5.15;;;;;;;25.31;41.14;95136.22;6302909;27;110613;-71
2023/08/08 04:23:17;;;;;;;9.10;5.90;;;;;;;25.31;41.24;95126.31;6297458;27;111011;-72
2023/08/08 04:26:20;;;;;;;5.32;4.82;;;;;;;25.32;41.23;95130.53;6298364;27;109109;-72
2023/08/08 04:29:25;;;;;;;6.63;4.90;;;;;;;25.29;41.33;95135.78;6294153;27;110166;-72
2023/08/08 04:32:28;;;;;;;5.40;4.90;;;;;;;25.28;41.44;95142.25;6311224;27;109266;-72
2023/08/08 04:35:31;;;;;;;5.10;4.60;;;;;;;25.16;41.64;95136.78;6310020;27;108936;-71
2023/08/08 04:38:34;;;;;;;5.30;3.90;;;;;;;25.16;41.38;95136.78;6293196;27;109547;-71
2023/08/08 04:41:37;;;;;;;4.00;3.60;;;;;;;25.23;41.41;95140.53;6291676;27;109364;-72
2023/08/08 04:44:42;;;;;;;9.13;3.80;;;;;;;25.24;41.21;95146.69;6294735;27;109192;-70
2023/08/08 04:47:45;;;;;;;10.77;3.50;;;;;;;25.24;40.84;95144.00;6300777;27;109033;-62
2023/08/08 04:50:48;;;;;;;6.80;3.43;;;;;;;25.25;41.44;95142.88;6277919;27;111251;-65
2023/08/08 04:53:52;;;;;;;17.50;3.80;;;;;;;25.31;41.35;95146.94;6285209;27;109032;-62
2023/08/08 04:56:55;;;;;;;6.23;3.50;;;;;;;25.31;41.84;95141.59;6296918;27;109060;-64
2023/08/08 05:00:01;;;;;;;6.07;3.10;;;;;;;25.28;42.11;95135.00;6307246;27;110365;-63
2023/08/08 05:03:04;;;;;;;6.90;3.20;;;;;;;25.24;42.12;95141.31;6294541;27;109134;-62
2023/08/08 05:06:08;;;;;;;6.32;3.40;;;;;;;25.19;42.63;95150.31;6292091;27;109077;-62
2023/08/08 05:09:11;;;;;;;3.50;3.20;;;;;;;25.22;42.29;95160.41;6296490;27;110177;-66
2023/08/08 05:12:14;;;;;;;4.80;3.90;;;;;;;25.12;42.61;95163.44;6287097;27;109131;-62
2023/08/08 05:15:18;;;;;;;3.90;3.50;;;;;;;25.08;42.83;95171.31;6285762;27;110751;-62
2023/08/08 05:18:21;;;;;;;5.50;3.20;;;;;;;24.96;41.83;95176.56;6295942;27;109135;-62
2023/08/08 05:21:25;;;;;;;3.50;2.60;;;;;;;24.81;41.84;95181.66;6306027;27;108984;-63
2023/08/08 05:24:28;;;;;;;3.53;3.00;;;;;;;24.76;42.13;95190.66;6293803;27;109629;-64
2023/08/08 05:27:31;;;;;;;4.55;2.80;;;;;;;24.70;41.89;95202.63;6287050;27;109153;-63
2023/08/08 05:30:36;;;;;;;7.20;2.83;;;;;;;24.69;41.87;95206.38;6289059;27;109581;-63
2023/08/08 05:33:39;;;;;;;3.40;2.50;;;;;;;24.74;42.13;95203.56;6307423;27;108922;-64
2023/08/08 05:36:42;;;;;;;3.40;2.50;;;;;;;24.79;42.02;95208.75;6297880;27;108867;-62
2023/08/08 05:39:46;;;;;;;3.22;2.40;;;;;;;24.76;41.80;95206.72;6302057;27;109992;-63
2023/08/08 05:42:49;;;;;;;3.08;2.45;;;;;;;24.87;41.69;95210.63;6298001;27;109205;-63
2023/08/08 05:45:53;;;;;;;3.22;2.45;;;;;;;24.77;41.47;95216.31;6306672;27;109871;-62
2023/08/08 05:48:56;;;;;;;3.90;2.10;;;;;;;24.75;41.37;95221.97;6276649;27;109167;-63
2023/08/08 05:51:59;;;;;;;2.80;2.50;;;;;;;24.76;41.27;95220.09;6287998;27;109428;-62
2023/08/08 05:55:03;;;;;;;2.70;2.30;;;;;;;24.69;41.27;95217.09;6288571;27;108951;-64
2023/08/08 05:58:07;;;;;;;3.13;2.30;;;;;;;24.66;40.82;95223.06;6301939;27;109227;-63
2023/08/08 06:01:12;;;;;;;2.60;2.40;;;;;;;24.56;41.02;95228.75;6298556;27;111930;-64
2023/08/08 06:04:15;;;;;;;2.92;2.00;;;;;;;24.43;40.99;95236.63;6294957;27;108739;-64
2023/08/08 06:07:19;;;;;;;3.25;2.25;;;;;;;24.37;41.09;95237.91;6301980;27;109140;-63
2023/08/08 06:10:22;;;;;;;4.10;2.38;;;;;;;24.25;40.79;95240.41;6303241;27;109168;-63
2023/08/08 06:13:25;;;;;;;4.82;2.50;;;;;;;24.26;41.17;95238.53;6310076;27;109042;-63
2023/08/08 06:16:30;;;;;;;3.88;2.38;;;;;;;24.09;41.30;95234.72;6307444;27;109086;-62
2023/08/08 06:19:33;;;;;;;2.80;2.30;;;;;;;24.17;40.47;95236.63;6287499;27;109051;-62
2023/08/08 06:22:37;;;;;;;3.20;2.50;;;;;;;24.07;40.79;95233.47;6275777;27;109217;-63
2023/08/08 06:25:40;;;;;;;2.90;2.27;;;;;;;24.51;40.20;95243.06;6287326;27;109187;-63
2023/08/08 06:28:43;;;;;;;2.33;2.17;;;;;;;24.97;39.55;95238.94;6289109;27;109396;-62
2023/08/08 06:31:48;;;;;;;3.23;2.93;;;;;;;25.29;39.53;95246.38;6288767;27;109079;-62
2023/08/08 06:34:51;;;;;;;3.20;2.97;;;;;;;25.47;39.64;95241.78;6277836;27;110065;-61
2023/08/08 06:37:54;;;;;;;3.77;3.17;;;;;;;25.50;38.37;95235.75;6289062;27;109011;-62
2023/08/08 06:40:57;;;;;;;2.53;2.33;;;;;;;25.48;38.80;95237.97;6288731;27;108982;-63
2023/08/08 06:44:00;;;;;;;2.27;2.17;;;;;;;25.67;39.39;95240.25;6282520;27;109232;-65
2023/08/08 06:47:05;;;;;;;3.53;2.13;;;;;;;25.78;39.15;95244.13;6289818;27;109159;-63
2023/08/08 06:50:09;;;;;;;2.00;1.80;;;;;;;25.91;39.18;95250.38;6314504;27;109232;-62
2023/08/08 06:53:13;;;;;;;2.53;2.33;;;;;;;25.98;38.92;95242.59;6314672;27;109910;-62
2023/08/08 06:56:16;;;;;;;2.43;2.23;;;;;;;25.96;39.04;95248.28;6301982;27;110231;-61
2023/08/08 06:59:19;;;;;;;2.27;1.80;;;;;;;26.02;39.16;95250.78;6288542;27;109127;-62
2023/08/08 07:02:23;;;;;;;2.30;2.10;;;;;;;26.05;38.92;95250.94;6288539;27;110121;-61
2023/08/08 07:05:27;;;;;;;2.20;2.00;;;;;;;26.05;39.06;95253.63;6288004;27;108933;-62
2023/08/08 07:08:30;;;;;;;2.37;2.20;;;;;;;25.98;39.10;95256.00;6279168;27;110013;-61
2023/08/08 07:11:33;;;;;;;4.40;2.23;;;;;;;25.86;38.66;95248.66;6290841;27;109304;-60
2023/08/08 07:14:36;;;;;;;2.17;2.07;;;;;;;25.84;38.70;95258.91;6313379;27;108906;-61
2023/08/08 07:17:41;;;;;;;2.70;2.50;;;;;;;25.84;38.68;95248.19;6297072;27;109526;-60
2023/08/08 07:20:45;;;;;;;2.33;2.00;;;;;;;25.86;38.55;95239.81;6282370;27;109309;-61
2023/08/08 07:23:48;;;;;;;3.40;2.13;;;;;;;25.87;37.94;95246.75;6309611;27;108534;-61
2023/08/08 07:26:51;;;;;;;1.97;1.80;;;;;;;25.88;38.14;95259.06;6309395;27;110529;-60
2023/08/08 07:29:54;;;;;;;1.90;1.80;;;;;;;25.94;37.98;95249.72;6277500;27;109010;-61
2023/08/08 07:32:59;;;;;;;1.87;1.77;;;;;;;26.02;37.59;95256.94;6301469;27;109141;-61
2023/08/08 07:36:02;;;;;;;1.83;1.73;;;;;;;26.09;37.66;95256.44;6312681;27;108958;-60
2023/08/08 07:39:05;;;;;;;3.40;2.10;;;;;;;26.08;37.48;95252.19;6312467;27;109194;-61
2023/08/08 07:42:08;;;;;;;1.90;1.80;;;;;;;26.11;37.65;95256.91;6297156;27;110197;-61
2023/08/08 07:45:11;;;;;;;2.00;1.90;;;;;;;26.17;36.73;95256.38;6286949;27;109286;-61
2023/08/08 07:48:16;;;;;;;2.50;1.90;;;;;;;26.20;37.04;95255.72;6302468;27;109145;-60
2023/08/08 07:51:19;;;;;;;1.93;1.73;;;;;;;26.21;37.20;95264.53;6312926;27;109250;-59
2023/08/08 07:54:22;;;;;;;2.13;1.90;;;;;;;26.17;36.63;95253.69;6301294;27;108983;-60
2023/08/08 07:57:28;;;;;;;2.20;1.83;;;;;;;26.14;36.58;95246.31;6312090;27;109196;-60
2023/08/08 08:00:31;;;;;;;4.03;1.50;;;;;;;26.18;36.64;95255.25;6312970;27;109229;-59
2023/08/08 08:03:36;;;;;;;1.57;1.47;;;;;;;26.23;35.78;95260.44;6305502;27;111111;-61
2023/08/08 08:06:39;;;;;;;1.70;1.47;;;;;;;26.23;35.78;95267.72;6310065;27;109484;-60
2023/08/08 08:09:45;;;;;;;1.70;1.50;;;;;;;26.20;36.25;95247.66;6312413;27;109094;-60
2023/08/08 08:12:48;;;;;;;1.50;1.30;;;;;;;26.23;35.90;95257.78;6312059;27;110039;-61
2023/08/08 08:15:51;;;;;;;2.80;1.97;;;;;;;26.21;36.26;95251.94;6300953;27;108877;-60
2023/08/08 08:18:56;;;;;;;1.47;1.37;;;;;;;26.20;36.45;95257.59;6312321;27;110166;-63
2023/08/08 08:21:59;;;;;;;1.53;1.40;;;;;;;26.24;35.76;95245.13;6312219;27;110232;-61
2023/08/08 08:25:02;;;;;;;1.30;1.20;;;;;;;26.30;35.84;95246.50;6312470;27;109061;-62
2023/08/08 08:28:06;;;;;;;1.30;1.20;;;;;;;26.30;35.79;95243.03;6300708;27;109867;-63
2023/08/08 08:31:09;;;;;;;1.23;1.10;;;;;;;26.30;35.96;95259.91;6312608;27;108544;-62
2023/08/08 08:34:14;;;;;;;1.73;1.40;;;;;;;26.35;36.07;95248.97;6311288;27;109304;-62
2023/08/08 08:37:17;;;;;;;1.80;1.60;;;;;;;26.42;35.89;95243.09;6302643;27;109017;-61
2023/08/08 08:40:20;;;;;;;1.73;1.50;;;;;;;26.44;35.38;95240.88;6281018;27;109067;-61
2023/08/08 08:43:23;;;;;;;1.60;1.40;;;;;;;26.45;36.00;95245.13;6286639;27;109394;-62
2023/08/08 08:46:27;;;;;;;1.27;1.17;;;;;;;26.43;35.30;95247.34;6286672;27;109991;-62
2023/08/08 08:49:32;;;;;;;1.40;1.00;;;;;;;26.42;35.50;95243.09;6275250;27;109183;-61
2023/08/08 08:52:36;;;;;;;2.53;1.30;;;;;;;26.46;35.86;95244.00;6286576;27;110639;-61
2023/08/08 08:55:40;;;;;;;2.37;1.33;;;;;;;26.53;35.57;95246.94;6287048;27;109545;-62
2023/08/08 08:58:44;;;;;;;1.60;1.20;;;;;;;26.58;35.58;95246.75;6305983;27;108955;-62
2023/08/08 09:01:47;;;;;;;3.07;1.37;;;;;;;26.59;34.85;95242.94;6293304;27;109792;-63
2023/08/08 09:04:52;;;;;;;2.30;1.90;;;;;;;26.10;34.55;95237.34;6300415;27;109663;-63
2023/08/08 09:07:56;;;;;;;3.17;2.30;;;;;;;25.65;34.77;95240.56;6311234;27;109742;-63
2023/08/08 09:11:00;;;;;;;3.80;1.90;;;;;;;25.43;34.84;95232.81;6312581;27;109635;-64
2023/08/08 09:14:04;;;;;;;2.27;2.10;;;;;;;25.25;35.27;95233.97;6298995;27;109311;-62
2023/08/08 09:17:11;;;;;;;2.03;1.93;;;;;;;25.14;35.07;95233.53;6297540;27;108795;-66
2023/08/08 09:20:16;;;;;;;;;;;;;;;24.95;35.15;95233.91;6293172;27;110020;-63
2023/08/08 09:23:19;;;;;;;;;;;;;;;24.81;35.11;95232.50;6282568;27;109021;-61
2023/08/08 09:26:22;;;;;;;;;;;;;;;24.86;35.45;95237.69;6291235;27;108976;-62
2023/08/08 09:29:25;;;;;;;;;;;;;;;25.03;35.81;95246.50;6297042;27;109139;-63
2023/08/08 09:32:30;;;;;;;;;;;;;;;25.10;35.35;95243.31;6292731;27;109031;-63
2023/08/08 09:35:34;;;;;;;;;;;;;;;25.00;35.32;95252.47;6295992;27;109063;-62
2023/08/08 09:38:37;;;;;;;;;;;;;;;24.86;35.14;95251.06;6290838;27;110042;-61
2023/08/08 09:41:40;;;;;;;;;;;;;;;24.94;35.28;95251.06;6297212;27;109371;-62
2023/08/08 09:44:43;;;;;;;;;;;;;;;24.82;35.14;95242.91;6308574;27;109035;-63
2023/08/08 09:47:46;;;;;;;;;;;;;;;24.79;35.67;95248.88;6301530;27;109149;-61
2023/08/08 09:50:51;;;;;;;;;;;;;;;24.66;35.68;95250.59;6297131;27;109027;-62
2023/08/08 09:53:54;;;;;;;;;;;;;;;24.90;35.28;95247.47;6291735;27;110049;-63
2023/08/08 09:56:57;;;;;;;;;;;;;;;24.81;35.32;95256.59;6288610;27;110269;-61
2023/08/08 10:00:02;;;;;;;;;;;;;;;24.67;34.98;95246.81;6297116;27;109029;-62
2023/08/08 10:03:06;;;;;;;;;;;;;;;24.64;35.26;95246.69;6306489;27;110214;-62
2023/08/08 10:08:44;;;;;;;1.80;1.70;;;;;;;24.93;35.33;95236.09;6331004;27;108710;-64
2023/08/08 10:11:48;;;;;;;9.13;2.40;;;;;;;25.21;35.68;95241.06;6327874;27;110094;-62
2023/08/08 10:14:51;;;;;;;5.20;2.20;;;;;;;25.46;35.74;95245.56;6329759;27;108994;-63
2023/08/08 10:17:56;;;;;;;5.80;1.90;;;;;;;25.63;35.86;95242.00;6329724;27;109044;-62
2023/08/08 10:20:59;;;;;;;2.70;2.00;;;;;;;25.75;35.72;95244.78;6320448;27;109997;-64
2023/08/08 10:24:06;;;;;;;3.70;2.00;;;;;;;25.78;36.03;95241.47;6334228;27;109892;-62
2023/08/08 10:27:10;;;;;;;4.10;2.10;;;;;;;25.80;35.38;95241.91;6333090;27;109338;-62
2023/08/08 10:30:14;;;;;;;6.00;1.70;;;;;;;25.78;35.66;95236.09;6330799;27;109665;-64
2023/08/08 10:33:18;;;;;;;4.67;2.13;;;;;;;25.72;35.47;95239.31;6323071;27;109879;-63
2023/08/08 10:36:23;;;;;;;3.00;2.20;;;;;;;25.75;35.54;95225.25;6334383;27;109128;-62
2023/08/08 10:39:27;;;;;;;2.93;2.10;;;;;;;25.69;35.49;95220.03;6333597;27;109011;-64
2023/08/08 10:42:30;;;;;;;4.63;2.40;;;;;;;25.65;35.15;95216.44;6327485;27;109812;-65
2023/08/08 10:45:36;;;;;;;2.77;2.10;;;;;;;25.29;34.99;95213.47;6329104;27;112164;-64
2023/08/08 10:48:51;;;;;;;2.47;2.27;;;;;;;24.93;35.08;95193.28;6333706;27;109126;-64
2023/08/08 10:51:54;;;;;;;3.20;2.10;;;;;;;24.80;34.81;95204.97;6333222;27;109252;-64
2023/08/08 10:54:59;;;;;;;2.10;2.00;;;;;;;24.83;35.23;95204.31;6322585;27;110426;-64
2023/08/08 10:58:07;;;;;;;2.83;2.07;;;;;;;24.77;35.26;95197.56;6333066;27;109350;-64
2023/08/08 11:01:12;;;;;;;6.60;2.53;;;;;;;24.79;35.18;95212.19;6332338;27;109003;-64
2023/08/08 11:04:16;;;;;;;3.80;2.43;;;;;;;24.76;35.56;95210.16;6332908;27;109107;-64
2023/08/08 11:07:20;;;;;;;3.10;2.00;;;;;;;24.91;35.78;95202.72;6321852;27;111024;-60
2023/08/08 11:10:30;;;;;;;2.40;2.20;;;;;;;25.30;35.13;95212.34;6333000;27;108999;-61
2023/08/08 11:13:34;;;;;;;2.10;1.93;;;;;;;25.52;35.00;95201.38;6331696;27;108877;-60
2023/08/08 11:16:37;;;;;;;2.93;1.87;;;;;;;25.67;34.75;95200.03;6327779;27;110106;-61
2023/08/08 11:19:41;;;;;;;2.57;1.70;;;;;;;25.69;34.64;95201.28;6313506;27;109925;-60
2023/08/08 11:22:44;;;;;;;2.10;1.90;;;;;;;25.78;34.56;95203.94;6314889;27;109164;-61
2023/08/08 11:25:50;;;;;;;1.93;1.80;;;;;;;25.79;34.69;95191.31;6316062;27;109445;-61
2023/08/08 11:29:13;;;;;;;1.97;1.87;;;;;;;25.81;34.77;95197.13;6304916;27;109616;-60
2023/08/08 11:32:16;;;;;;;1.80;1.70;;;;;;;25.84;34.60;95191.88;6315118;27;111774;-60
2023/08/08 11:35:23;;;;;;;1.73;1.63;;;;;;;25.85;34.52;95198.03;6295205;27;109060;-60
2023/08/08 11:38:26;;;;;;;2.00;1.90;;;;;;;25.85;35.14;95198.03;6294074;27;111090;-60
2023/08/08 11:41:31;;;;;;;3.20;1.80;;;;;;;25.87;34.87;95193.13;6304437;27;108911;-60
2023/08/08 11:44:35;;;;;;;1.77;1.43;;;;;;;25.89;34.89;95193.63;6314760;27;109055;-61
2023/08/08 11:47:39;;;;;;;2.10;2.00;;;;;;;25.89;34.64;95190.94;6314816;27;109345;-61
2023/08/08 11:50:44;;;;;;;2.20;1.90;;;;;;;25.88;35.04;95186.69;6310273;27;108782;-60
2023/08/08 11:53:51;;;;;;;1.90;1.80;;;;;;;25.86;34.73;95192.34;6309504;27;108954;-62
2023/08/08 11:56:56;;;;;;;1.53;1.43;;;;;;;25.83;34.73;95181.50;6315328;27;108983;-59
2023/08/08 11:59:59;;;;;;;1.70;1.53;;;;;;;25.85;35.31;95190.00;6314830;27;108928;-61
2023/08/08 12:03:04;;;;;;;2.00;1.90;;;;;;;25.82;34.92;95171.88;6302522;27;109515;-61
2023/08/08 12:06:13;;;;;;;1.77;1.60;;;;;;;25.83;34.94;95168.09;6313988;27;108936;-61
2023/08/08 12:09:16;;;;;;;1.83;1.73;;;;;;;25.85;34.54;95181.94;6314763;27;109577;-62
2023/08/08 12:12:21;;;;;;;1.73;1.63;;;;;;;25.83;35.17;95171.56;6314438;27;110129;-60
2023/08/08 12:15:24;;;;;;;1.80;1.70;;;;;;;25.79;34.96;95178.69;6301657;27;109050;-61
2023/08/08 12:18:27;;;;;;;1.70;1.60;;;;;;;25.75;34.97;95168.94;6313380;27;110076;-60
2023/08/08 12:21:32;;;;;;;1.73;1.63;;;;;;;25.76;35.19;95163.25;6309122;27;110636;-61
2023/08/08 12:24:36;;;;;;;3.40;2.00;;;;;;;25.60;34.56;95160.38;6305057;27;110527;-62
2023/08/08 12:27:42;;;;;;;3.78;1.90;;;;;;;25.33;35.06;95166.16;6303990;27;109436;-64
2023/08/08 12:30:45;;;;;;;2.25;1.95;;;;;;;25.20;35.37;95167.94;6310412;27;109034;-63
2023/08/08 12:33:49;;;;;;;8.23;2.00;;;;;;;25.36;36.02;95160.19;6309582;27;112152;-63
2023/08/08 12:36:54;;;;;;;7.38;2.15;;;;;;;25.49;35.77;95156.47;6297458;27;109491;-62
2023/08/08 12:39:57;;;;;;;6.63;2.00;;;;;;;25.59;36.10;95158.00;6308412;27;109193;-62
2023/08/08 12:43:02;;;;;;;4.40;1.70;;;;;;;25.62;35.92;95152.00;6304697;27;109151;-63
2023/08/08 12:46:05;;;;;;;4.97;1.90;;;;;;;25.66;36.24;95153.69;6311177;27;108989;-63
2023/08/08 12:49:08;;;;;;;3.40;1.90;;;;;;;25.66;36.91;95142.97;6300518;27;109192;-62
2023/08/08 12:52:11;;;;;;;5.60;1.97;;;;;;;25.70;36.71;95151.13;6307570;27;109197;-63
2023/08/08 12:55:17;;;;;;;2.40;1.70;;;;;;;25.74;36.80;95143.25;6306802;27;109527;-63
2023/08/08 12:58:21;;;;;;;3.40;1.70;;;;;;;25.75;36.83;95148.28;6308630;27;110043;-66
2023/08/08 13:01:27;;;;;;;2.72;1.60;;;;;;;25.78;37.27;95136.91;6304575;27;111801;-72
2023/08/08 13:04:30;;;;;;;3.57;1.90;;;;;;;25.80;36.97;95137.34;6310538;27;109198;-71
2023/08/08 13:07:33;;;;;;;3.00;1.80;;;;;;;25.82;37.43;95134.34;6311018;27;109179;-71
2023/08/08 13:10:37;;;;;;;2.60;1.83;;;;;;;25.81;37.40;95128.19;6300551;27;109867;-70
2023/08/08 13:13:41;;;;;;;4.60;1.90;;;;;;;25.82;37.53;95123.63;6309356;27;109237;-70
2023/08/08 13:16:45;;;;;;;4.65;2.10;;;;;;;25.87;37.23;95134.16;6308779;27;108991;-71
2023/08/08 13:19:48;;;;;;;4.20;2.20;;;;;;;25.88;37.45;95128.47;6310393;27;109243;-70
2023/08/08 13:22:52;;;;;;;4.00;1.93;;;;;;;25.90;37.69;95125.47;6298298;27;109462;-69
2023/08/08 13:25:55;;;;;;;3.30;1.90;;;;;;;25.91;37.08;95130.50;6309696;27;109546;-70
2023/08/08 13:29:00;;;;;;;8.50;3.25;;;;;;;25.92;37.08;95126.72;6308160;27;109060;-69
2023/08/08 13:32:03;;;;;;;7.28;3.58;;;;;;;25.96;37.21;95126.81;6306729;27;109227;-70
2023/08/08 13:35:07;;;;;;;13.35;6.45;;;;;;;25.97;37.63;95128.41;6298713;27;109173;-70
2023/08/08 13:38:14;;;;;;;14.68;8.30;;;;;;;25.99;36.92;95128.84;6309780;27;109473;-70
2023/08/08 13:41:17;;;;;;;29.60;13.00;;;;;;;26.00;38.00;95119.72;6299134;27;110168;-69
2023/08/08 13:44:22;;;;;;;28.07;13.40;;;;;;;26.06;38.07;95120.31;6297885;27;110750;-71
2023/08/08 13:47:25;;;;;;;32.42;14.63;;;;;;;26.12;37.94;95133.19;6300423;27;109359;-69
2023/08/08 13:50:28;;;;;;;24.08;12.75;;;;;;;26.15;37.64;95131.75;6305270;27;109317;-71
2023/08/08 13:53:31;;;;;;;27.00;12.38;;;;;;;26.12;38.21;95127.81;6309281;27;109159;-71
2023/08/08 13:56:35;;;;;;;22.77;10.90;;;;;;;26.17;37.43;95134.88;6284651;27;108994;-71
2023/08/08 13:59:39;;;;;;;20.85;9.55;;;;;;;26.21;37.84;95122.38;6307531;27;109270;-72
2023/08/08 14:02:43;;;;;;;19.48;9.43;;;;;;;26.27;37.94;95134.47;6307366;27;108999;-70
2023/08/08 14:05:46;;;;;;;32.72;12.82;;;;;;;26.24;37.51;95130.56;6310810;27;109599;-70
2023/08/08 14:08:52;;;;;;;25.73;11.65;;;;;;;26.22;38.14;95122.06;6288583;27;109058;-70
2023/08/08 14:11:55;;;;;;;26.67;11.30;;;;;;;26.21;37.89;95122.38;6309356;27;109944;-63
2023/08/08 14:14:59;;;;;;;26.45;10.40;;;;;;;26.18;38.62;95126.50;6309467;27;111269;-62
2023/08/08 14:18:03;;;;;;;22.60;10.02;;;;;;;26.15;38.24;95127.16;6303378;27;110046;-63
2023/08/08 14:21:06;;;;;;;22.20;10.30;;;;;;;26.22;38.57;95119.38;6305565;27;110425;-63
2023/08/08 14:24:09;;;;;;;20.55;9.57;;;;;;;26.25;38.52;95120.59;6309433;27;109024;-61
2023/08/08 14:27:13;;;;;;;22.30;9.40;;;;;;;26.24;37.88;95109.09;6310213;27;109380;-62